sensor_id;sensor_type;location;lat;lon;timestamp;temperature;humidity
17092;DHT22;8661;45.700;4.880;2023-03-14T00:00:03;10.80;99.90
17092;DHT22;8661;45.700;4.880;2023-03-14T00:02:31;10.90;99.90
17092;DHT22;8661;45.700;4.880;2023-03-14T00:04:58;10.90;99.90
17092;DHT22;8661;45.700;4.880;2023-03-14T00:07:27;10.90;99.90
17092;DHT22;8661;45.700;4.880;2023-03-14T00:10:01;10.90;99.90
17092;DHT22;8661;45.700;4.880;2023-03-14T00:12:30;10.90;99.90
17092;DHT22;8661;45.700;4.880;2023-03-14T00:14:56;10.80;99.90
17092;DHT22;8661;45.700;4.880;2023-03-14T00:17:25;10.80;99.90
17092;DHT22;8661;45.700;4.880;2023-03-14T00:19:52;10.80;99.90
17092;DHT22;8661;45.700;4.880;2023-03-14T00:22:19;10.80;99.90
17092;DHT22;8661;45.700;4.880;2023-03-14T00:24:46;10.80;99.90
17092;DHT22;8661;45.700;4.880;2023-03-14T00:27:14;10.80;99.90
17092;DHT22;8661;45.700;4.880;2023-03-14T00:29:42;10.80;99.90
17092;DHT22;8661;45.700;4.880;2023-03-14T00:32:09;10.80;99.90
17092;DHT22;8661;45.700;4.880;2023-03-14T00:34:36;10.80;99.90
17092;DHT22;8661;45.700;4.880;2023-03-14T00:37:03;10.80;99.90
17092;DHT22;8661;45.700;4.880;2023-03-14T00:39:30;10.80;99.90
17092;DHT22;8661;45.700;4.880;2023-03-14T00:41:56;10.80;99.90
17092;DHT22;8661;45.700;4.880;2023-03-14T00:44:25;10.70;99.90
17092;DHT22;8661;45.700;4.880;2023-03-14T00:46:52;10.80;99.90
17092;DHT22;8661;45.700;4.880;2023-03-14T00:49:19;10.70;99.90
17092;DHT22;8661;45.700;4.880;2023-03-14T00:51:46;10.70;99.90
17092;DHT22;8661;45.700;4.880;2023-03-14T00:54:12;10.70;99.90
17092;DHT22;8661;45.700;4.880;2023-03-14T00:56:39;10.70;99.90
17092;DHT22;8661;45.700;4.880;2023-03-14T00:59:06;10.70;99.90
17092;DHT22;8661;45.700;4.880;2023-03-14T01:01:35;10.70;99.90
17092;DHT22;8661;45.700;4.880;2023-03-14T01:04:02;10.70;99.90
17092;DHT22;8661;45.700;4.880;2023-03-14T01:06:29;10.70;99.90
17092;DHT22;8661;45.700;4.880;2023-03-14T01:08:57;10.70;99.90
17092;DHT22;8661;45.700;4.880;2023-03-14T01:11:26;10.70;99.90
17092;DHT22;8661;45.700;4.880;2023-03-14T01:13:54;10.70;99.90
17092;DHT22;8661;45.700;4.880;2023-03-14T01:16:23;10.60;99.90
17092;DHT22;8661;45.700;4.880;2023-03-14T01:18:51;10.60;99.90
17092;DHT22;8661;45.700;4.880;2023-03-14T01:21:20;10.60;99.90
17092;DHT22;8661;45.700;4.880;2023-03-14T01:23:48;10.60;99.90
17092;DHT22;8661;45.700;4.880;2023-03-14T01:26:17;10.60;99.90
17092;DHT22;8661;45.700;4.880;2023-03-14T01:28:45;10.60;99.90
17092;DHT22;8661;45.700;4.880;2023-03-14T01:31:12;10.60;99.90
17092;DHT22;8661;45.700;4.880;2023-03-14T01:33:40;10.60;99.90
17092;DHT22;8661;45.700;4.880;2023-03-14T01:36:10;10.70;99.90
17092;DHT22;8661;45.700;4.880;2023-03-14T01:38:38;10.70;99.90
17092;DHT22;8661;45.700;4.880;2023-03-14T01:41:06;10.70;99.90
17092;DHT22;8661;45.700;4.880;2023-03-14T01:43:33;10.80;99.90
17092;DHT22;8661;45.700;4.880;2023-03-14T01:46:25;10.80;99.90
17092;DHT22;8661;45.700;4.880;2023-03-14T01:48:57;10.90;99.90
17092;DHT22;8661;45.700;4.880;2023-03-14T01:51:30;10.90;99.90
17092;DHT22;8661;45.700;4.880;2023-03-14T01:54:04;11.00;99.90
17092;DHT22;8661;45.700;4.880;2023-03-14T01:56:33;10.90;99.90
17092;DHT22;8661;45.700;4.880;2023-03-14T01:59:01;10.90;99.90
17092;DHT22;8661;45.700;4.880;2023-03-14T02:01:29;10.90;99.90
17092;DHT22;8661;45.700;4.880;2023-03-14T02:04:01;10.90;99.90
17092;DHT22;8661;45.700;4.880;2023-03-14T02:06:35;10.80;99.90
17092;DHT22;8661;45.700;4.880;2023-03-14T02:09:05;10.80;99.90
17092;DHT22;8661;45.700;4.880;2023-03-14T02:11:32;10.80;99.90
17092;DHT22;8661;45.700;4.880;2023-03-14T02:13:59;10.80;99.90
17092;DHT22;8661;45.700;4.880;2023-03-14T02:16:28;10.80;99.90
17092;DHT22;8661;45.700;4.880;2023-03-14T02:18:55;10.90;99.90
17092;DHT22;8661;45.700;4.880;2023-03-14T02:21:26;10.90;99.90
17092;DHT22;8661;45.700;4.880;2023-03-14T02:24:01;10.90;99.90
17092;DHT22;8661;45.700;4.880;2023-03-14T02:26:34;10.90;99.90
17092;DHT22;8661;45.700;4.880;2023-03-14T02:29:04;10.90;99.90
17092;DHT22;8661;45.700;4.880;2023-03-14T02:31:32;10.90;99.90
17092;DHT22;8661;45.700;4.880;2023-03-14T02:33:59;10.90;99.90
17092;DHT22;8661;45.700;4.880;2023-03-14T02:36:29;10.90;99.90
17092;DHT22;8661;45.700;4.880;2023-03-14T02:39:03;10.90;99.90
17092;DHT22;8661;45.700;4.880;2023-03-14T02:41:33;10.80;99.90
17092;DHT22;8661;45.700;4.880;2023-03-14T02:44:00;10.80;99.90
17092;DHT22;8661;45.700;4.880;2023-03-14T02:46:29;10.70;99.90
17092;DHT22;8661;45.700;4.880;2023-03-14T02:48:59;10.70;99.90
17092;DHT22;8661;45.700;4.880;2023-03-14T02:51:29;10.60;99.90
17092;DHT22;8661;45.700;4.880;2023-03-14T02:53:56;10.60;99.90
17092;DHT22;8661;45.700;4.880;2023-03-14T02:56:22;10.50;99.90
17092;DHT22;8661;45.700;4.880;2023-03-14T02:58:49;10.50;99.90
17092;DHT22;8661;45.700;4.880;2023-03-14T03:01:16;10.40;99.90
17092;DHT22;8661;45.700;4.880;2023-03-14T03:03:45;10.40;99.90
17092;DHT22;8661;45.700;4.880;2023-03-14T03:06:12;10.40;99.90
17092;DHT22;8661;45.700;4.880;2023-03-14T03:08:38;10.40;99.90
17092;DHT22;8661;45.700;4.880;2023-03-14T03:11:06;10.40;99.90
17092;DHT22;8661;45.700;4.880;2023-03-14T03:13:33;10.40;99.90
17092;DHT22;8661;45.700;4.880;2023-03-14T03:16:00;10.40;99.90
17092;DHT22;8661;45.700;4.880;2023-03-14T03:18:27;10.40;99.90
17092;DHT22;8661;45.700;4.880;2023-03-14T03:20:59;10.50;99.90
17092;DHT22;8661;45.700;4.880;2023-03-14T03:23:27;10.50;99.90
17092;DHT22;8661;45.700;4.880;2023-03-14T03:25:54;10.50;99.90
17092;DHT22;8661;45.700;4.880;2023-03-14T03:28:21;10.50;99.90
17092;DHT22;8661;45.700;4.880;2023-03-14T03:30:48;10.50;99.90
17092;DHT22;8661;45.700;4.880;2023-03-14T03:33:14;10.50;99.90
17092;DHT22;8661;45.700;4.880;2023-03-14T03:35:43;10.60;99.90
17092;DHT22;8661;45.700;4.880;2023-03-14T03:38:12;10.60;99.90
17092;DHT22;8661;45.700;4.880;2023-03-14T03:40:39;10.60;99.90
17092;DHT22;8661;45.700;4.880;2023-03-14T03:43:06;10.70;99.90
17092;DHT22;8661;45.700;4.880;2023-03-14T03:45:32;10.70;99.90
17092;DHT22;8661;45.700;4.880;2023-03-14T03:47:59;10.80;99.90
17092;DHT22;8661;45.700;4.880;2023-03-14T03:50:26;10.70;99.90
17092;DHT22;8661;45.700;4.880;2023-03-14T03:52:53;10.70;99.90
17092;DHT22;8661;45.700;4.880;2023-03-14T03:55:21;10.70;99.90
17092;DHT22;8661;45.700;4.880;2023-03-14T03:57:48;10.70;99.90
17092;DHT22;8661;45.700;4.880;2023-03-14T04:00:15;10.70;99.90
17092;DHT22;8661;45.700;4.880;2023-03-14T04:02:42;10.70;99.90
17092;DHT22;8661;45.700;4.880;2023-03-14T04:05:09;10.70;99.90
17092;DHT22;8661;45.700;4.880;2023-03-14T04:07:36;10.70;99.90
17092;DHT22;8661;45.700;4.880;2023-03-14T04:10:03;10.60;99.90
17092;DHT22;8661;45.700;4.880;2023-03-14T04:12:32;10.60;99.90
17092;DHT22;8661;45.700;4.880;2023-03-14T04:14:59;10.70;99.90
17092;DHT22;8661;45.700;4.880;2023-03-14T04:17:25;10.70;99.90
17092;DHT22;8661;45.700;4.880;2023-03-14T04:19:52;10.70;99.90
17092;DHT22;8661;45.700;4.880;2023-03-14T04:22:19;10.70;99.90
17092;DHT22;8661;45.700;4.880;2023-03-14T04:24:46;10.70;99.90
17092;DHT22;8661;45.700;4.880;2023-03-14T04:27:13;10.80;99.90
17092;DHT22;8661;45.700;4.880;2023-03-14T04:29:42;10.70;99.90
17092;DHT22;8661;45.700;4.880;2023-03-14T04:32:09;10.60;99.90
17092;DHT22;8661;45.700;4.880;2023-03-14T04:34:36;10.50;99.90
17092;DHT22;8661;45.700;4.880;2023-03-14T04:37:03;10.30;99.90
17092;DHT22;8661;45.700;4.880;2023-03-14T04:39:30;10.20;99.90
17092;DHT22;8661;45.700;4.880;2023-03-14T04:41:57;10.10;99.90
17092;DHT22;8661;45.700;4.880;2023-03-14T04:44:24;10.10;99.90
17092;DHT22;8661;45.700;4.880;2023-03-14T04:46:52;10.00;99.90
17092;DHT22;8661;45.700;4.880;2023-03-14T04:49:19;10.00;99.90
17092;DHT22;8661;45.700;4.880;2023-03-14T04:51:46;10.00;99.90
17092;DHT22;8661;45.700;4.880;2023-03-14T04:54:13;9.90;99.90
17092;DHT22;8661;45.700;4.880;2023-03-14T04:56:40;9.90;99.90
17092;DHT22;8661;45.700;4.880;2023-03-14T04:59:06;9.90;99.90
17092;DHT22;8661;45.700;4.880;2023-03-14T05:01:33;9.90;99.90
17092;DHT22;8661;45.700;4.880;2023-03-14T05:04:02;9.90;99.90
17092;DHT22;8661;45.700;4.880;2023-03-14T05:06:28;9.90;99.90
17092;DHT22;8661;45.700;4.880;2023-03-14T05:08:55;9.90;99.90
17092;DHT22;8661;45.700;4.880;2023-03-14T05:11:22;9.90;99.90
17092;DHT22;8661;45.700;4.880;2023-03-14T05:13:49;9.90;99.90
17092;DHT22;8661;45.700;4.880;2023-03-14T05:16:16;9.90;99.90
17092;DHT22;8661;45.700;4.880;2023-03-14T05:18:43;9.90;99.90
17092;DHT22;8661;45.700;4.880;2023-03-14T05:21:11;9.80;99.90
17092;DHT22;8661;45.700;4.880;2023-03-14T05:23:38;9.80;99.90
17092;DHT22;8661;45.700;4.880;2023-03-14T05:26:05;9.80;99.90
17092;DHT22;8661;45.700;4.880;2023-03-14T05:28:32;9.80;99.90
17092;DHT22;8661;45.700;4.880;2023-03-14T05:30:59;9.80;99.90
17092;DHT22;8661;45.700;4.880;2023-03-14T05:33:26;9.80;99.90
17092;DHT22;8661;45.700;4.880;2023-03-14T05:35:53;9.80;99.90
17092;DHT22;8661;45.700;4.880;2023-03-14T05:38:21;9.80;99.90
17092;DHT22;8661;45.700;4.880;2023-03-14T05:40:48;9.80;99.90
17092;DHT22;8661;45.700;4.880;2023-03-14T05:43:14;9.80;99.90
17092;DHT22;8661;45.700;4.880;2023-03-14T05:45:42;9.80;99.90
17092;DHT22;8661;45.700;4.880;2023-03-14T05:48:09;9.80;99.90
17092;DHT22;8661;45.700;4.880;2023-03-14T05:50:36;9.80;99.90
17092;DHT22;8661;45.700;4.880;2023-03-14T05:53:03;9.90;99.90
17092;DHT22;8661;45.700;4.880;2023-03-14T05:55:31;9.90;99.90
17092;DHT22;8661;45.700;4.880;2023-03-14T05:57:58;9.90;99.90
17092;DHT22;8661;45.700;4.880;2023-03-14T06:00:25;9.90;99.90
17092;DHT22;8661;45.700;4.880;2023-03-14T06:02:52;9.90;99.90
17092;DHT22;8661;45.700;4.880;2023-03-14T06:05:19;9.90;99.90
17092;DHT22;8661;45.700;4.880;2023-03-14T06:07:46;10.00;99.90
17092;DHT22;8661;45.700;4.880;2023-03-14T06:10:12;10.00;99.90
17092;DHT22;8661;45.700;4.880;2023-03-14T06:12:41;10.00;99.90
17092;DHT22;8661;45.700;4.880;2023-03-14T06:15:08;10.00;99.90
17092;DHT22;8661;45.700;4.880;2023-03-14T06:17:35;10.10;99.90
17092;DHT22;8661;45.700;4.880;2023-03-14T06:20:02;10.10;99.90
17092;DHT22;8661;45.700;4.880;2023-03-14T06:22:29;10.10;99.90
17092;DHT22;8661;45.700;4.880;2023-03-14T06:24:56;10.10;99.90
17092;DHT22;8661;45.700;4.880;2023-03-14T06:27:23;10.10;99.90
17092;DHT22;8661;45.700;4.880;2023-03-14T06:29:51;10.20;99.90
17092;DHT22;8661;45.700;4.880;2023-03-14T06:32:18;10.20;99.90
17092;DHT22;8661;45.700;4.880;2023-03-14T06:34:46;10.20;99.90
17092;DHT22;8661;45.700;4.880;2023-03-14T06:37:12;10.10;99.90
17092;DHT22;8661;45.700;4.880;2023-03-14T06:39:39;10.10;99.90
17092;DHT22;8661;45.700;4.880;2023-03-14T06:42:06;10.10;99.90
17092;DHT22;8661;45.700;4.880;2023-03-14T06:44:33;10.10;99.90
17092;DHT22;8661;45.700;4.880;2023-03-14T06:47:02;10.10;99.90
17092;DHT22;8661;45.700;4.880;2023-03-14T06:49:29;10.10;99.90
17092;DHT22;8661;45.700;4.880;2023-03-14T06:51:55;10.10;99.90
17092;DHT22;8661;45.700;4.880;2023-03-14T06:54:22;10.10;99.90
17092;DHT22;8661;45.700;4.880;2023-03-14T06:56:49;10.10;99.90
17092;DHT22;8661;45.700;4.880;2023-03-14T06:59:22;10.00;99.90
17092;DHT22;8661;45.700;4.880;2023-03-14T07:01:49;10.00;99.90
17092;DHT22;8661;45.700;4.880;2023-03-14T07:04:17;10.00;99.90
17092;DHT22;8661;45.700;4.880;2023-03-14T07:06:44;10.10;99.90
17092;DHT22;8661;45.700;4.880;2023-03-14T07:09:12;10.00;99.90
17092;DHT22;8661;45.700;4.880;2023-03-14T07:11:39;9.90;99.90
17092;DHT22;8661;45.700;4.880;2023-03-14T07:14:08;9.90;99.90
17092;DHT22;8661;45.700;4.880;2023-03-14T07:16:35;9.80;99.90
17092;DHT22;8661;45.700;4.880;2023-03-14T07:19:02;9.80;99.90
17092;DHT22;8661;45.700;4.880;2023-03-14T07:21:30;9.80;99.90
17092;DHT22;8661;45.700;4.880;2023-03-14T07:24:00;9.70;99.90
17092;DHT22;8661;45.700;4.880;2023-03-14T07:26:27;9.70;99.90
17092;DHT22;8661;45.700;4.880;2023-03-14T07:28:54;9.70;99.90
17092;DHT22;8661;45.700;4.880;2023-03-14T07:31:20;9.70;99.90
17092;DHT22;8661;45.700;4.880;2023-03-14T07:33:47;9.80;99.90
17092;DHT22;8661;45.700;4.880;2023-03-14T07:36:14;9.80;99.90
17092;DHT22;8661;45.700;4.880;2023-03-14T07:38:43;9.90;99.90
17092;DHT22;8661;45.700;4.880;2023-03-14T07:41:10;9.90;99.90
17092;DHT22;8661;45.700;4.880;2023-03-14T07:43:36;10.00;99.90
17092;DHT22;8661;45.700;4.880;2023-03-14T07:46:04;10.00;99.90
17092;DHT22;8661;45.700;4.880;2023-03-14T07:48:31;10.00;99.90
17092;DHT22;8661;45.700;4.880;2023-03-14T07:50:58;10.00;99.90
17092;DHT22;8661;45.700;4.880;2023-03-14T07:53:25;10.10;99.90
17092;DHT22;8661;45.700;4.880;2023-03-14T07:55:53;10.20;99.90
17092;DHT22;8661;45.700;4.880;2023-03-14T07:58:21;10.30;99.90
17092;DHT22;8661;45.700;4.880;2023-03-14T08:00:48;10.30;99.90
17092;DHT22;8661;45.700;4.880;2023-03-14T08:03:15;10.30;99.90
17092;DHT22;8661;45.700;4.880;2023-03-14T08:05:43;10.40;99.90
17092;DHT22;8661;45.700;4.880;2023-03-14T08:08:10;10.40;99.90
17092;DHT22;8661;45.700;4.880;2023-03-14T08:10:37;10.40;99.90
17092;DHT22;8661;45.700;4.880;2023-03-14T08:13:05;10.50;99.90
17092;DHT22;8661;45.700;4.880;2023-03-14T08:15:32;10.50;99.90
17092;DHT22;8661;45.700;4.880;2023-03-14T08:17:59;10.60;99.90
17092;DHT22;8661;45.700;4.880;2023-03-14T08:20:27;10.70;99.90
17092;DHT22;8661;45.700;4.880;2023-03-14T08:22:56;11.20;99.90
17092;DHT22;8661;45.700;4.880;2023-03-14T08:25:23;11.60;99.90
17092;DHT22;8661;45.700;4.880;2023-03-14T08:27:50;11.80;99.90
17092;DHT22;8661;45.700;4.880;2023-03-14T08:30:20;11.90;99.90
17092;DHT22;8661;45.700;4.880;2023-03-14T08:32:47;12.10;99.90
17092;DHT22;8661;45.700;4.880;2023-03-14T08:35:14;12.10;99.90
17092;DHT22;8661;45.700;4.880;2023-03-14T08:37:41;11.90;99.90
17092;DHT22;8661;45.700;4.880;2023-03-14T08:40:09;11.90;99.90
17092;DHT22;8661;45.700;4.880;2023-03-14T08:42:37;12.00;99.90
17092;DHT22;8661;45.700;4.880;2023-03-14T08:45:06;11.90;99.90
17092;DHT22;8661;45.700;4.880;2023-03-14T08:47:34;11.70;99.90
17092;DHT22;8661;45.700;4.880;2023-03-14T08:50:02;11.60;99.90
17092;DHT22;8661;45.700;4.880;2023-03-14T08:52:29;11.50;99.90
17092;DHT22;8661;45.700;4.880;2023-03-14T08:54:57;11.60;99.90
17092;DHT22;8661;45.700;4.880;2023-03-14T08:57:24;11.70;99.90
17092;DHT22;8661;45.700;4.880;2023-03-14T08:59:53;11.60;99.90
17092;DHT22;8661;45.700;4.880;2023-03-14T09:02:19;11.30;99.90
17092;DHT22;8661;45.700;4.880;2023-03-14T09:04:49;11.20;99.90
17092;DHT22;8661;45.700;4.880;2023-03-14T09:07:16;11.10;99.90
17092;DHT22;8661;45.700;4.880;2023-03-14T09:09:43;11.10;99.90
17092;DHT22;8661;45.700;4.880;2023-03-14T09:12:10;11.10;99.90
17092;DHT22;8661;45.700;4.880;2023-03-14T09:14:37;11.10;99.90
17092;DHT22;8661;45.700;4.880;2023-03-14T09:17:04;11.20;99.90
17092;DHT22;8661;45.700;4.880;2023-03-14T09:19:31;11.20;99.90
17092;DHT22;8661;45.700;4.880;2023-03-14T09:21:59;11.20;99.90
17092;DHT22;8661;45.700;4.880;2023-03-14T09:24:26;11.20;99.90
17092;DHT22;8661;45.700;4.880;2023-03-14T09:26:54;11.30;99.90
17092;DHT22;8661;45.700;4.880;2023-03-14T09:29:21;11.40;99.90
17092;DHT22;8661;45.700;4.880;2023-03-14T09:31:48;11.40;99.90
17092;DHT22;8661;45.700;4.880;2023-03-14T09:34:15;11.40;99.90
17092;DHT22;8661;45.700;4.880;2023-03-14T09:36:42;11.30;99.90
17092;DHT22;8661;45.700;4.880;2023-03-14T09:39:11;11.30;99.90
17092;DHT22;8661;45.700;4.880;2023-03-14T09:41:39;11.20;99.90
17092;DHT22;8661;45.700;4.880;2023-03-14T09:44:10;11.20;99.90
17092;DHT22;8661;45.700;4.880;2023-03-14T09:46:39;11.20;99.90
17092;DHT22;8661;45.700;4.880;2023-03-14T09:49:14;11.20;99.90
17092;DHT22;8661;45.700;4.880;2023-03-14T09:51:44;11.20;99.90
17092;DHT22;8661;45.700;4.880;2023-03-14T09:54:26;11.10;99.90
17092;DHT22;8661;45.700;4.880;2023-03-14T09:56:56;10.90;99.90
17092;DHT22;8661;45.700;4.880;2023-03-14T09:59:23;10.90;99.90
17092;DHT22;8661;45.700;4.880;2023-03-14T10:01:52;10.90;99.90
17092;DHT22;8661;45.700;4.880;2023-03-14T10:04:21;11.10;99.90
17092;DHT22;8661;45.700;4.880;2023-03-14T10:06:49;11.20;99.90
17092;DHT22;8661;45.700;4.880;2023-03-14T10:09:21;11.30;99.90
17092;DHT22;8661;45.700;4.880;2023-03-14T10:11:55;11.50;99.90
17092;DHT22;8661;45.700;4.880;2023-03-14T10:14:31;11.70;99.90
17092;DHT22;8661;45.700;4.880;2023-03-14T10:17:05;11.80;99.90
17092;DHT22;8661;45.700;4.880;2023-03-14T10:19:34;11.90;99.90
17092;DHT22;8661;45.700;4.880;2023-03-14T10:22:03;11.90;99.90
17092;DHT22;8661;45.700;4.880;2023-03-14T10:24:33;11.80;99.90
17092;DHT22;8661;45.700;4.880;2023-03-14T10:27:02;11.80;99.90
17092;DHT22;8661;45.700;4.880;2023-03-14T10:29:51;11.80;99.90
17092;DHT22;8661;45.700;4.880;2023-03-14T10:32:20;11.60;99.90
17092;DHT22;8661;45.700;4.880;2023-03-14T10:35:05;11.60;99.90
17092;DHT22;8661;45.700;4.880;2023-03-14T10:37:33;11.60;99.90
17092;DHT22;8661;45.700;4.880;2023-03-14T10:40:02;11.60;99.90
17092;DHT22;8661;45.700;4.880;2023-03-14T10:42:32;11.90;99.90
17092;DHT22;8661;45.700;4.880;2023-03-14T10:45:02;12.00;99.90
17092;DHT22;8661;45.700;4.880;2023-03-14T10:47:32;12.30;99.90
17092;DHT22;8661;45.700;4.880;2023-03-14T10:50:23;12.40;99.90
17092;DHT22;8661;45.700;4.880;2023-03-14T10:52:52;12.60;99.90
17092;DHT22;8661;45.700;4.880;2023-03-14T10:55:23;12.60;99.90
17092;DHT22;8661;45.700;4.880;2023-03-14T10:57:51;12.70;99.90
17092;DHT22;8661;45.700;4.880;2023-03-14T11:00:21;12.70;99.90
17092;DHT22;8661;45.700;4.880;2023-03-14T11:03:03;12.80;99.90
17092;DHT22;8661;45.700;4.880;2023-03-14T11:05:36;12.90;99.90
17092;DHT22;8661;45.700;4.880;2023-03-14T11:08:11;13.00;99.90
17092;DHT22;8661;45.700;4.880;2023-03-14T11:10:45;13.20;99.90
17092;DHT22;8661;45.700;4.880;2023-03-14T11:13:17;13.50;99.90
17092;DHT22;8661;45.700;4.880;2023-03-14T11:15:53;13.90;99.90
17092;DHT22;8661;45.700;4.880;2023-03-14T11:18:47;15.30;99.90
17092;DHT22;8661;45.700;4.880;2023-03-14T11:21:21;16.10;99.90
17092;DHT22;8661;45.700;4.880;2023-03-14T11:23:55;16.30;99.90
17092;DHT22;8661;45.700;4.880;2023-03-14T11:26:35;16.80;99.90
17092;DHT22;8661;45.700;4.880;2023-03-14T11:29:16;17.00;99.90
17092;DHT22;8661;45.700;4.880;2023-03-14T11:31:46;16.80;99.90
17092;DHT22;8661;45.700;4.880;2023-03-14T11:34:16;16.30;99.90
17092;DHT22;8661;45.700;4.880;2023-03-14T11:36:48;16.70;99.90
17092;DHT22;8661;45.700;4.880;2023-03-14T11:39:18;17.20;99.90
17092;DHT22;8661;45.700;4.880;2023-03-14T11:41:49;18.00;99.90
17092;DHT22;8661;45.700;4.880;2023-03-14T11:44:19;18.60;99.90
17092;DHT22;8661;45.700;4.880;2023-03-14T11:46:50;19.10;99.90
17092;DHT22;8661;45.700;4.880;2023-03-14T11:49:27;19.70;99.90
17092;DHT22;8661;45.700;4.880;2023-03-14T11:52:00;20.30;99.90
17092;DHT22;8661;45.700;4.880;2023-03-14T11:54:34;20.40;99.90
17092;DHT22;8661;45.700;4.880;2023-03-14T11:57:11;20.40;99.90
17092;DHT22;8661;45.700;4.880;2023-03-14T11:59:47;19.70;99.90
17092;DHT22;8661;45.700;4.880;2023-03-14T12:02:22;19.70;99.90
17092;DHT22;8661;45.700;4.880;2023-03-14T12:05:19;19.80;99.90
17092;DHT22;8661;45.700;4.880;2023-03-14T12:10:52;19.30;98.20
17092;DHT22;8661;45.700;4.880;2023-03-14T12:13:22;19.90;98.70
17092;DHT22;8661;45.700;4.880;2023-03-14T12:15:58;20.50;96.20
17092;DHT22;8661;45.700;4.880;2023-03-14T12:18:28;20.10;95.80
17092;DHT22;8661;45.700;4.880;2023-03-14T12:20:58;19.30;96.40
17092;DHT22;8661;45.700;4.880;2023-03-14T12:23:26;19.40;95.80
17092;DHT22;8661;45.700;4.880;2023-03-14T12:26:16;19.30;95.00
17092;DHT22;8661;45.700;4.880;2023-03-14T12:28:49;19.50;93.30
17092;DHT22;8661;45.700;4.880;2023-03-14T12:31:38;19.60;93.60
17092;DHT22;8661;45.700;4.880;2023-03-14T12:37:12;18.20;95.70
17092;DHT22;8661;45.700;4.880;2023-03-14T12:39:47;17.90;96.60
17092;DHT22;8661;45.700;4.880;2023-03-14T12:42:21;17.50;97.00
17092;DHT22;8661;45.700;4.880;2023-03-14T12:44:52;17.20;97.90
17092;DHT22;8661;45.700;4.880;2023-03-14T12:47:49;18.00;96.70
17092;DHT22;8661;45.700;4.880;2023-03-14T12:50:34;18.60;95.00
17092;DHT22;8661;45.700;4.880;2023-03-14T12:56:11;18.20;93.70
17092;DHT22;8661;45.700;4.880;2023-03-14T12:58:44;19.10;92.80
17092;DHT22;8661;45.700;4.880;2023-03-14T13:01:18;19.40;91.50
17092;DHT22;8661;45.700;4.880;2023-03-14T13:03:47;19.40;90.90
17092;DHT22;8661;45.700;4.880;2023-03-14T13:06:47;19.50;90.50
17092;DHT22;8661;45.700;4.880;2023-03-14T13:09:35;19.20;88.60
17092;DHT22;8661;45.700;4.880;2023-03-14T13:12:07;18.30;88.90
17092;DHT22;8661;45.700;4.880;2023-03-14T13:14:40;18.50;89.70
17092;DHT22;8661;45.700;4.880;2023-03-14T13:17:11;18.00;85.60
17092;DHT22;8661;45.700;4.880;2023-03-14T13:19:38;17.50;91.30
17092;DHT22;8661;45.700;4.880;2023-03-14T13:22:15;17.00;94.60
17092;DHT22;8661;45.700;4.880;2023-03-14T13:24:42;16.60;95.00
17092;DHT22;8661;45.700;4.880;2023-03-14T13:27:17;16.70;96.10
17092;DHT22;8661;45.700;4.880;2023-03-14T13:29:48;17.00;95.70
17092;DHT22;8661;45.700;4.880;2023-03-14T13:32:20;16.70;96.30
17092;DHT22;8661;45.700;4.880;2023-03-14T13:34:48;16.70;95.90
17092;DHT22;8661;45.700;4.880;2023-03-14T13:37:20;16.70;94.70
17092;DHT22;8661;45.700;4.880;2023-03-14T13:39:50;16.80;94.20
17092;DHT22;8661;45.700;4.880;2023-03-14T13:42:19;16.50;94.30
17092;DHT22;8661;45.700;4.880;2023-03-14T13:44:46;16.30;93.80
17092;DHT22;8661;45.700;4.880;2023-03-14T13:47:15;16.70;94.40
17092;DHT22;8661;45.700;4.880;2023-03-14T13:49:44;17.60;92.30
17092;DHT22;8661;45.700;4.880;2023-03-14T13:52:28;17.90;91.40
17092;DHT22;8661;45.700;4.880;2023-03-14T13:54:56;17.90;91.10
17092;DHT22;8661;45.700;4.880;2023-03-14T13:57:23;17.70;90.90
17092;DHT22;8661;45.700;4.880;2023-03-14T14:00:00;17.60;90.60
17092;DHT22;8661;45.700;4.880;2023-03-14T14:02:32;17.00;90.70
17092;DHT22;8661;45.700;4.880;2023-03-14T14:05:01;16.60;91.50
17092;DHT22;8661;45.700;4.880;2023-03-14T14:07:28;16.30;91.50
17092;DHT22;8661;45.700;4.880;2023-03-14T14:09:55;16.30;91.50
17092;DHT22;8661;45.700;4.880;2023-03-14T14:12:26;16.30;91.40
17092;DHT22;8661;45.700;4.880;2023-03-14T14:14:57;16.40;91.10
17092;DHT22;8661;45.700;4.880;2023-03-14T14:17:29;16.50;90.60
17092;DHT22;8661;45.700;4.880;2023-03-14T14:19:57;16.70;90.30
17092;DHT22;8661;45.700;4.880;2023-03-14T14:22:26;16.90;90.00
17092;DHT22;8661;45.700;4.880;2023-03-14T14:24:53;16.90;89.70
17092;DHT22;8661;45.700;4.880;2023-03-14T14:27:28;17.40;88.90
17092;DHT22;8661;45.700;4.880;2023-03-14T14:29:58;17.50;87.20
17092;DHT22;8661;45.700;4.880;2023-03-14T14:32:26;17.90;86.00
17092;DHT22;8661;45.700;4.880;2023-03-14T14:34:58;17.50;85.30
17092;DHT22;8661;45.700;4.880;2023-03-14T14:37:28;17.10;87.10
17092;DHT22;8661;45.700;4.880;2023-03-14T14:39:58;16.60;87.40
17092;DHT22;8661;45.700;4.880;2023-03-14T14:42:27;17.00;87.70
17092;DHT22;8661;45.700;4.880;2023-03-14T14:44:56;17.50;86.60
17092;DHT22;8661;45.700;4.880;2023-03-14T14:47:25;18.20;84.50
17092;DHT22;8661;45.700;4.880;2023-03-14T14:49:54;18.40;81.80
17092;DHT22;8661;45.700;4.880;2023-03-14T14:52:27;18.70;80.30
17092;DHT22;8661;45.700;4.880;2023-03-14T14:55:00;19.00;80.80
17092;DHT22;8661;45.700;4.880;2023-03-14T14:57:30;19.20;79.60
17092;DHT22;8661;45.700;4.880;2023-03-14T15:00:02;19.20;78.40
17092;DHT22;8661;45.700;4.880;2023-03-14T15:02:36;18.90;78.70
17092;DHT22;8661;45.700;4.880;2023-03-14T15:05:08;18.30;78.10
17092;DHT22;8661;45.700;4.880;2023-03-14T15:07:38;18.40;78.50
17092;DHT22;8661;45.700;4.880;2023-03-14T15:10:11;18.10;78.80
17092;DHT22;8661;45.700;4.880;2023-03-14T15:12:38;17.90;80.10
17092;DHT22;8661;45.700;4.880;2023-03-14T15:15:06;18.20;79.90
17092;DHT22;8661;45.700;4.880;2023-03-14T15:17:34;18.60;79.50
17092;DHT22;8661;45.700;4.880;2023-03-14T15:20:01;18.50;78.90
17092;DHT22;8661;45.700;4.880;2023-03-14T15:22:29;18.20;79.10
17092;DHT22;8661;45.700;4.880;2023-03-14T15:24:57;17.90;79.60
17092;DHT22;8661;45.700;4.880;2023-03-14T15:27:25;17.50;79.00
17092;DHT22;8661;45.700;4.880;2023-03-14T15:29:54;17.20;78.60
17092;DHT22;8661;45.700;4.880;2023-03-14T15:32:20;16.70;78.30
17092;DHT22;8661;45.700;4.880;2023-03-14T15:34:47;16.50;77.90
17092;DHT22;8661;45.700;4.880;2023-03-14T15:37:16;16.10;79.60
17092;DHT22;8661;45.700;4.880;2023-03-14T15:39:43;15.70;79.60
17092;DHT22;8661;45.700;4.880;2023-03-14T15:42:10;15.30;80.50
17092;DHT22;8661;45.700;4.880;2023-03-14T15:44:38;15.20;80.40
17092;DHT22;8661;45.700;4.880;2023-03-14T15:47:06;14.90;80.70
17092;DHT22;8661;45.700;4.880;2023-03-14T15:49:33;14.80;81.60
17092;DHT22;8661;45.700;4.880;2023-03-14T15:52:00;14.50;81.80
17092;DHT22;8661;45.700;4.880;2023-03-14T15:54:27;14.10;81.70
17092;DHT22;8661;45.700;4.880;2023-03-14T15:56:54;14.00;82.50
17092;DHT22;8661;45.700;4.880;2023-03-14T15:59:21;14.00;82.90
17092;DHT22;8661;45.700;4.880;2023-03-14T16:01:50;14.30;83.00
17092;DHT22;8661;45.700;4.880;2023-03-14T16:04:17;14.60;82.80
17092;DHT22;8661;45.700;4.880;2023-03-14T16:06:44;14.80;81.60
17092;DHT22;8661;45.700;4.880;2023-03-14T16:09:11;14.70;81.50